createdAt,value
2022-10-22T00:00:11.766Z,87.94
2022-10-22T00:01:11.759Z,88.05
2022-10-22T00:02:11.751Z,88.00
2022-10-22T00:03:11.783Z,87.78
2022-10-22T00:04:11.839Z,87.76
2022-10-22T00:05:11.720Z,87.47
2022-10-22T00:06:11.724Z,87.58
2022-10-22T00:07:11.809Z,87.68
2022-10-22T00:08:11.747Z,88.04
2022-10-22T00:09:11.714Z,88.14
2022-10-22T00:10:11.660Z,88.31
2022-10-22T00:11:11.672Z,88.23
2022-10-22T00:12:11.639Z,88.25
2022-10-22T00:13:11.678Z,88.47
2022-10-22T00:14:11.661Z,88.60
2022-10-22T00:15:11.611Z,88.11
2022-10-22T00:16:11.653Z,88.03
2022-10-22T00:17:11.872Z,88.15
2022-10-22T00:18:11.595Z,88.41
2022-10-22T00:19:11.594Z,88.59
2022-10-22T00:20:11.597Z,88.76
2022-10-22T00:21:11.592Z,88.63
2022-10-22T00:22:11.553Z,88.55
2022-10-22T00:23:11.544Z,88.71
2022-10-22T00:24:11.578Z,88.85
2022-10-22T00:25:11.516Z,88.97
2022-10-22T00:26:11.545Z,89.04
2022-10-22T00:27:11.487Z,88.79
2022-10-22T00:28:11.494Z,88.87
2022-10-22T00:29:11.489Z,88.74
2022-10-22T00:30:11.459Z,89.06
2022-10-22T00:31:11.470Z,89.11
2022-10-22T00:32:11.501Z,89.31
2022-10-22T00:33:11.431Z,89.27
2022-10-22T00:34:11.478Z,89.17
2022-10-22T00:35:11.403Z,89.01
2022-10-22T00:36:11.395Z,88.70
2022-10-22T00:37:11.386Z,88.37
2022-10-22T00:38:11.419Z,88.09
2022-10-22T00:39:11.419Z,87.99
2022-10-22T00:40:11.408Z,88.38
2022-10-22T00:41:11.424Z,88.36
2022-10-22T00:42:11.336Z,88.50
2022-10-22T00:43:11.346Z,88.35
2022-10-22T00:44:11.334Z,88.46
2022-10-22T00:45:11.315Z,88.51
2022-10-22T00:46:11.377Z,88.57
2022-10-22T00:47:11.282Z,88.84
2022-10-22T00:48:11.273Z,88.86
2022-10-22T00:49:11.263Z,89.03
2022-10-22T00:50:11.279Z,89.11
2022-10-22T00:51:11.243Z,89.13
2022-10-22T00:52:11.290Z,89.11
2022-10-22T00:53:11.270Z,89.03
2022-10-22T00:54:11.258Z,89.14
2022-10-22T00:55:11.213Z,89.12
2022-10-22T00:56:11.243Z,89.19
2022-10-22T00:57:11.199Z,89.26
2022-10-22T00:58:11.191Z,89.01
2022-10-22T00:59:11.177Z,88.96
2022-10-22T01:00:11.183Z,88.92
2022-10-22T01:01:11.257Z,88.78
2022-10-22T01:02:11.152Z,88.70
2022-10-22T01:03:11.122Z,88.66
2022-10-22T01:04:11.131Z,88.64
2022-10-22T01:05:11.182Z,88.54
2022-10-22T01:06:11.094Z,88.59
2022-10-22T01:07:11.085Z,88.66
2022-10-22T01:09:11.095Z,88.86
2022-10-22T01:10:11.062Z,88.81
2022-10-22T01:11:11.093Z,89.03
2022-10-22T01:12:11.044Z,89.10
2022-10-22T01:13:11.038Z,89.02
2022-10-22T01:14:11.067Z,89.23
2022-10-22T01:15:11.053Z,89.08
2022-10-22T01:16:10.992Z,88.89
2022-10-22T01:17:11.078Z,88.93
2022-10-22T01:18:10.972Z,89.02
2022-10-22T01:19:10.971Z,88.89
2022-10-22T01:20:10.954Z,88.87
2022-10-22T01:21:10.995Z,88.86
2022-10-22T01:22:10.938Z,88.84
2022-10-22T01:23:10.935Z,88.87
2022-10-22T01:24:10.911Z,88.85
2022-10-22T01:25:10.917Z,88.81
2022-10-22T01:26:11.011Z,88.89
2022-10-22T01:27:10.938Z,88.81
2022-10-22T01:28:11.002Z,88.56
2022-10-22T01:29:10.867Z,88.59
2022-10-22T01:30:10.917Z,88.88
2022-10-22T01:31:10.906Z,88.77
2022-10-22T01:32:10.896Z,88.82
2022-10-22T01:33:10.822Z,88.87
2022-10-22T01:34:10.828Z,88.94
2022-10-22T01:35:10.806Z,88.76
2022-10-22T01:36:10.789Z,88.78
2022-10-22T01:37:10.785Z,89.00
2022-10-22T01:38:10.842Z,89.05
2022-10-22T01:39:10.825Z,89.19
2022-10-22T01:40:10.766Z,89.47
2022-10-22T01:41:10.785Z,89.53
2022-10-22T01:42:10.758Z,89.72
2022-10-22T01:43:10.882Z,89.75
2022-10-22T01:44:10.749Z,89.81
2022-10-22T01:45:10.742Z,89.79
2022-10-22T01:46:10.782Z,89.85
2022-10-22T01:47:10.705Z,89.75
2022-10-22T01:48:10.697Z,89.54
2022-10-22T01:49:10.677Z,89.44
2022-10-22T01:50:10.710Z,89.49
2022-10-22T01:51:10.739Z,89.50
2022-10-22T01:52:10.647Z,89.72
2022-10-22T01:53:10.647Z,89.98
2022-10-22T01:54:10.650Z,90.14
2022-10-22T01:55:10.661Z,90.30
2022-10-22T01:56:10.619Z,90.44
2022-10-22T01:57:10.657Z,90.54
2022-10-22T01:58:10.704Z,90.62
2022-10-22T01:59:10.840Z,90.74
2022-10-22T02:00:10.659Z,90.82
2022-10-22T02:01:10.584Z,90.90
2022-10-22T02:02:10.610Z,90.95
2022-10-22T02:03:10.547Z,91.01
2022-10-22T02:04:10.556Z,91.01
2022-10-22T02:05:10.528Z,91.02
2022-10-22T02:06:10.556Z,91.02
2022-10-22T02:07:10.491Z,91.00
2022-10-22T02:08:10.520Z,91.00
2022-10-22T02:09:10.537Z,91.05
2022-10-22T02:10:10.461Z,91.07
2022-10-22T02:11:10.516Z,91.02
2022-10-22T02:12:10.458Z,90.98
2022-10-22T02:13:10.457Z,90.99
2022-10-22T02:14:10.548Z,91.03
2022-10-22T02:15:10.425Z,91.05
2022-10-22T02:16:10.408Z,91.08
2022-10-22T02:17:10.400Z,91.16
2022-10-22T02:18:10.389Z,91.21
2022-10-22T02:19:10.388Z,91.27
2022-10-22T02:20:10.424Z,91.31
2022-10-22T02:21:10.370Z,91.35
2022-10-22T02:22:10.357Z,91.43
2022-10-22T02:23:10.340Z,91.51
2022-10-22T02:24:10.373Z,91.56
2022-10-22T02:25:10.311Z,91.64
2022-10-22T02:26:10.345Z,91.68
2022-10-22T02:27:10.350Z,91.73
2022-10-22T02:28:10.282Z,91.72
2022-10-22T02:29:10.289Z,91.72
2022-10-22T02:30:10.380Z,91.74
2022-10-22T02:31:10.230Z,91.73
2022-10-22T02:32:10.245Z,91.66
2022-10-22T02:33:10.271Z,91.60
2022-10-22T02:34:10.202Z,91.58
2022-10-22T02:35:10.203Z,91.57
2022-10-22T02:36:10.236Z,91.53
2022-10-22T02:37:10.175Z,91.52
2022-10-22T02:38:10.158Z,91.52
2022-10-22T02:39:10.270Z,91.51
2022-10-22T02:40:10.136Z,91.44
2022-10-22T02:41:10.140Z,91.43
2022-10-22T02:42:10.120Z,91.43
2022-10-22T02:43:10.133Z,91.48
2022-10-22T02:44:10.097Z,91.52
2022-10-22T02:45:10.142Z,91.56
2022-10-22T02:46:10.160Z,91.61
2022-10-22T02:47:10.088Z,91.61
2022-10-22T02:48:10.143Z,91.65
2022-10-22T02:49:10.050Z,91.64
2022-10-22T02:50:10.554Z,91.66
2022-10-22T02:51:10.037Z,91.66
2022-10-22T02:52:10.068Z,91.65
2022-10-22T02:53:10.020Z,91.64
2022-10-22T02:54:09.995Z,91.64
2022-10-22T02:55:09.988Z,91.65
2022-10-22T02:56:10.025Z,91.66
2022-10-22T02:57:10.104Z,91.69
2022-10-22T02:58:09.954Z,91.72
2022-10-22T02:59:09.957Z,91.75
2022-10-22T03:00:09.938Z,91.72
2022-10-22T03:01:12.425Z,91.71
2022-10-22T03:02:09.991Z,91.75
2022-10-22T03:03:09.908Z,91.75
2022-10-22T03:04:09.909Z,91.74
2022-10-22T03:05:09.889Z,91.76
2022-10-22T03:06:09.872Z,91.73
2022-10-22T03:07:09.872Z,91.66
2022-10-22T03:08:09.918Z,91.61
2022-10-22T03:09:09.883Z,91.56
2022-10-22T03:10:09.841Z,91.54
2022-10-22T03:11:09.879Z,91.54
2022-10-22T03:12:09.881Z,91.56
2022-10-22T03:13:09.815Z,91.58
2022-10-22T03:14:09.796Z,91.63
2022-10-22T03:15:09.796Z,91.60
2022-10-22T03:16:09.773Z,91.58
2022-10-22T03:17:09.762Z,91.62
2022-10-22T03:18:09.818Z,91.70
2022-10-22T03:19:09.746Z,91.77
2022-10-22T03:20:09.733Z,91.83
2022-10-22T03:21:09.792Z,91.88
2022-10-22T03:22:09.716Z,91.87
2022-10-22T03:23:09.704Z,91.85
2022-10-22T03:24:09.748Z,91.82
2022-10-22T03:25:09.694Z,91.74
2022-10-22T03:26:09.762Z,91.71
2022-10-22T03:27:09.716Z,91.65
2022-10-22T03:28:09.649Z,91.60
2022-10-22T03:29:09.657Z,91.55
2022-10-22T03:30:09.628Z,91.56
2022-10-22T03:31:09.627Z,91.58
2022-10-22T03:32:09.662Z,91.60
2022-10-22T03:33:09.671Z,91.60
2022-10-22T03:34:09.653Z,91.63
2022-10-22T03:35:09.593Z,91.62
2022-10-22T03:36:09.569Z,91.62
2022-10-22T03:37:09.625Z,91.60
2022-10-22T03:38:09.598Z,91.59
2022-10-22T03:39:09.578Z,91.56
2022-10-22T03:40:09.545Z,91.54
2022-10-22T03:41:09.564Z,91.43
2022-10-22T03:42:09.507Z,91.29
2022-10-22T03:43:09.557Z,91.12
2022-10-22T03:44:09.489Z,91.00
2022-10-22T03:45:09.489Z,90.99
2022-10-22T03:46:09.484Z,90.94
2022-10-22T03:47:09.463Z,90.86
2022-10-22T03:48:09.520Z,90.86
2022-10-22T03:49:09.442Z,90.91
2022-10-22T03:50:09.422Z,90.93
2022-10-22T03:51:09.433Z,90.88
2022-10-22T03:52:09.404Z,90.89
2022-10-22T03:53:09.404Z,90.96
2022-10-22T03:54:09.447Z,91.01
2022-10-22T03:55:09.379Z,91.05
2022-10-22T03:56:09.369Z,91.07
2022-10-22T03:57:09.362Z,91.05
2022-10-22T03:58:09.374Z,91.02
2022-10-22T03:59:09.337Z,91.05
2022-10-22T04:00:09.371Z,91.11
2022-10-22T04:01:09.426Z,91.16
2022-10-22T04:02:09.307Z,91.16
2022-10-22T04:03:09.305Z,91.19
2022-10-22T04:04:09.339Z,91.22
2022-10-22T04:05:09.309Z,91.22
2022-10-22T04:06:09.259Z,91.16
2022-10-22T04:07:09.267Z,91.18
2022-10-22T04:08:09.267Z,91.15
2022-10-22T04:09:09.292Z,91.10
2022-10-22T04:10:09.296Z,91.08
2022-10-22T04:11:09.235Z,91.09
2022-10-22T04:12:09.208Z,91.08
2022-10-22T04:13:09.199Z,91.03
2022-10-22T04:14:09.212Z,90.94
2022-10-22T04:15:09.239Z,90.89
2022-10-22T04:16:09.205Z,90.83
2022-10-22T04:17:09.189Z,90.76
2022-10-22T04:18:09.195Z,90.70
2022-10-22T04:19:09.186Z,90.64
2022-10-22T04:20:09.189Z,90.63
2022-10-22T04:21:09.164Z,90.67
2022-10-22T04:22:09.114Z,90.71
2022-10-22T04:23:09.092Z,90.82
2022-10-22T04:24:09.164Z,90.87
2022-10-22T04:25:09.096Z,90.89
2022-10-22T04:26:09.061Z,90.87
2022-10-22T04:27:09.060Z,90.89
2022-10-22T04:28:09.098Z,90.83
2022-10-22T04:29:11.948Z,90.86
2022-10-22T04:30:09.034Z,90.93
2022-10-22T04:31:09.031Z,90.98
2022-10-22T04:32:09.003Z,91.00
2022-10-22T04:33:09.004Z,91.03
2022-10-22T04:34:09.044Z,91.07
2022-10-22T04:35:09.053Z,91.10
2022-10-22T04:36:08.965Z,91.20
2022-10-22T04:37:08.954Z,91.28
2022-10-22T04:38:08.938Z,91.33
2022-10-22T04:39:08.991Z,91.39
2022-10-22T04:40:08.923Z,91.44
2022-10-22T04:41:08.908Z,91.49
2022-10-22T04:42:08.991Z,91.50
2022-10-22T04:43:08.895Z,91.56
2022-10-22T04:44:12.316Z,91.61
2022-10-22T04:45:08.923Z,91.64
2022-10-22T04:46:08.865Z,91.67
2022-10-22T04:47:08.893Z,91.73
2022-10-22T04:48:08.917Z,91.69
2022-10-22T04:49:08.837Z,91.73
2022-10-22T04:50:08.895Z,91.81
2022-10-22T04:51:08.823Z,91.83
2022-10-22T04:52:08.801Z,91.88
2022-10-22T04:53:08.791Z,91.88
2022-10-22T04:54:08.774Z,91.87
2022-10-22T04:55:08.784Z,91.85
2022-10-22T04:56:08.814Z,91.87
2022-10-22T04:57:08.762Z,91.87
2022-10-22T04:58:08.739Z,91.88
2022-10-22T04:59:08.742Z,91.88
2022-10-22T05:00:08.768Z,91.88
2022-10-22T05:01:08.828Z,91.81
2022-10-22T05:02:08.695Z,91.66
2022-10-22T05:03:08.702Z,91.60
2022-10-22T05:04:08.706Z,91.55
2022-10-22T05:05:08.684Z,91.46
2022-10-22T05:06:08.778Z,91.42
2022-10-22T05:07:08.652Z,91.42
2022-10-22T05:08:08.631Z,91.47
2022-10-22T05:09:08.811Z,91.53
2022-10-22T05:10:08.628Z,91.62
2022-10-22T05:11:08.609Z,91.59
2022-10-22T05:12:08.687Z,91.59
2022-10-22T05:13:08.598Z,91.59
2022-10-22T05:14:08.578Z,91.62
2022-10-22T05:15:08.573Z,91.70
2022-10-22T05:16:08.590Z,91.80
2022-10-22T05:17:08.555Z,91.83
2022-10-22T05:18:08.591Z,91.89
2022-10-22T05:19:08.551Z,91.97
2022-10-22T05:20:08.589Z,92.03
2022-10-22T05:21:08.559Z,92.10
2022-10-22T05:22:08.558Z,92.13
2022-10-22T05:23:08.482Z,92.17
2022-10-22T05:24:08.481Z,92.21
2022-10-22T05:25:08.421Z,92.23
2022-10-22T05:26:08.450Z,92.24
2022-10-22T05:27:08.496Z,92.25
2022-10-22T05:28:08.397Z,92.28
2022-10-22T05:29:08.394Z,92.31
2022-10-22T05:30:08.373Z,92.33
2022-10-22T05:31:08.356Z,92.34
2022-10-22T05:32:08.448Z,92.37
2022-10-22T05:33:08.328Z,92.39
2022-10-22T05:34:08.323Z,92.41
2022-10-22T05:35:08.346Z,92.40
2022-10-22T05:36:08.321Z,92.39
2022-10-22T05:37:08.332Z,92.36
2022-10-22T05:38:08.282Z,92.32
2022-10-22T05:39:08.266Z,92.27
2022-10-22T05:40:19.535Z,92.23
2022-10-22T05:41:08.256Z,92.18
2022-10-22T05:42:08.283Z,92.14
2022-10-22T05:43:08.245Z,92.14
2022-10-22T05:44:08.220Z,92.05
2022-10-22T05:45:08.218Z,92.05
2022-10-22T05:46:08.203Z,92.01
2022-10-22T05:47:08.211Z,91.97
2022-10-22T05:48:08.240Z,91.92
2022-10-22T05:49:08.195Z,91.89
2022-10-22T05:50:08.171Z,91.81
2022-10-22T05:51:08.192Z,91.71
2022-10-22T05:52:08.143Z,91.59
2022-10-22T05:53:08.158Z,91.54
2022-10-22T05:54:08.142Z,91.49
2022-10-22T05:55:08.213Z,91.41
2022-10-22T05:56:08.107Z,91.35
2022-10-22T05:57:08.145Z,91.26
2022-10-22T05:58:08.099Z,91.22
2022-10-22T05:59:08.079Z,91.12
2022-10-22T06:00:10.604Z,90.94
2022-10-22T06:01:08.065Z,90.79
2022-10-22T06:02:08.098Z,90.68
2022-10-22T06:03:08.116Z,90.60
2022-10-22T06:04:08.041Z,90.48
2022-10-22T06:05:08.060Z,90.28
2022-10-22T06:06:08.076Z,90.21
2022-10-22T06:07:08.073Z,90.18
2022-10-22T06:08:07.988Z,90.16
2022-10-22T06:09:08.042Z,90.09
2022-10-22T06:10:08.027Z,90.01
2022-10-22T06:11:08.014Z,89.82
2022-10-22T06:12:07.977Z,89.84
2022-10-22T06:13:07.939Z,89.86
2022-10-22T06:14:07.936Z,89.74
2022-10-22T06:15:08.076Z,89.57
2022-10-22T06:16:07.899Z,89.44
2022-10-22T06:17:07.929Z,89.44
2022-10-22T06:18:07.886Z,89.38
2022-10-22T06:19:07.927Z,89.36
2022-10-22T06:20:07.860Z,89.33
2022-10-22T06:21:07.898Z,89.43
2022-10-22T06:22:07.893Z,89.49
2022-10-22T06:23:07.828Z,89.53
2022-10-22T06:24:07.869Z,89.46
2022-10-22T06:25:07.895Z,89.48
2022-10-22T06:26:07.870Z,89.49
2022-10-22T06:27:07.782Z,89.49
2022-10-22T06:28:07.781Z,89.55
2022-10-22T06:29:07.761Z,89.62
2022-10-22T06:30:07.764Z,89.56
2022-10-22T06:31:07.745Z,89.60
2022-10-22T06:32:07.781Z,89.55
2022-10-22T06:33:07.724Z,89.48
2022-10-22T06:34:07.718Z,89.45
2022-10-22T06:35:07.696Z,89.41
2022-10-22T06:36:07.903Z,89.38
2022-10-22T06:37:07.725Z,89.29
2022-10-22T06:38:07.672Z,89.25
2022-10-22T06:39:07.660Z,89.29
2022-10-22T06:40:07.657Z,89.38
2022-10-22T06:41:07.642Z,89.41
2022-10-22T06:42:07.690Z,89.35
2022-10-22T06:43:07.701Z,89.42
2022-10-22T06:44:07.615Z,89.45
2022-10-22T06:45:07.601Z,89.47
2022-10-22T06:46:07.605Z,89.44
2022-10-22T06:47:07.659Z,89.55
2022-10-22T06:48:07.599Z,89.52
2022-10-22T06:49:07.563Z,89.51
2022-10-22T06:50:07.606Z,89.55
2022-10-22T06:51:07.534Z,89.50
2022-10-22T06:52:07.561Z,89.59
2022-10-22T06:53:07.550Z,89.56
2022-10-22T06:54:07.521Z,89.53
2022-10-22T06:55:07.556Z,89.48
2022-10-22T06:56:07.497Z,89.47
2022-10-22T06:57:07.550Z,89.49
2022-10-22T06:58:07.508Z,89.42
2022-10-22T06:59:07.489Z,89.42
2022-10-22T07:00:07.473Z,89.41
2022-10-22T07:01:07.486Z,89.28
2022-10-22T07:02:07.488Z,89.11
2022-10-22T07:03:07.437Z,88.96
2022-10-22T07:04:07.418Z,88.82
2022-10-22T07:05:07.429Z,88.64
2022-10-22T07:06:07.414Z,88.67
2022-10-22T07:07:07.399Z,88.71
2022-10-22T07:08:07.366Z,88.61
2022-10-22T07:09:07.513Z,88.65
2022-10-22T07:10:07.343Z,88.54
2022-10-22T07:11:07.372Z,88.17
2022-10-22T07:12:07.354Z,88.08
2022-10-22T07:13:07.374Z,88.00
2022-10-22T07:14:07.365Z,87.99
2022-10-22T07:15:07.307Z,88.06
2022-10-22T07:16:07.292Z,88.06
2022-10-22T07:17:07.312Z,88.00
2022-10-22T07:18:07.291Z,88.00
2022-10-22T07:19:07.258Z,88.00
2022-10-22T07:20:07.244Z,88.15
2022-10-22T07:21:07.283Z,88.26
2022-10-22T07:22:07.250Z,88.30
2022-10-22T07:23:07.249Z,88.41
2022-10-22T07:24:07.245Z,88.28
2022-10-22T07:25:07.613Z,88.22
2022-10-22T07:26:07.185Z,88.10
2022-10-22T07:27:09.496Z,88.10
2022-10-22T07:28:07.174Z,88.05
2022-10-22T07:29:07.192Z,88.11
2022-10-22T07:30:07.183Z,87.98
2022-10-22T07:31:07.128Z,87.96
2022-10-22T07:32:07.126Z,87.85
2022-10-22T07:33:07.113Z,87.71
2022-10-22T07:34:07.163Z,87.67
2022-10-22T07:35:07.124Z,87.53
2022-10-22T07:36:07.101Z,87.67
2022-10-22T07:37:07.137Z,87.59
2022-10-22T07:38:07.063Z,87.57
2022-10-22T07:39:07.059Z,87.51
2022-10-22T07:40:07.058Z,87.40
2022-10-22T07:41:07.082Z,87.40
2022-10-22T07:42:07.050Z,87.33
2022-10-22T07:43:07.049Z,87.41
2022-10-22T07:44:06.999Z,87.30
2022-10-22T07:45:07.132Z,87.53
2022-10-22T07:46:06.987Z,87.60
2022-10-22T07:47:06.969Z,87.54
2022-10-22T07:48:06.982Z,87.68
2022-10-22T07:49:06.993Z,87.68
2022-10-22T07:50:06.940Z,87.81
2022-10-22T07:51:06.927Z,87.69
2022-10-22T07:52:06.915Z,87.51
2022-10-22T07:53:06.915Z,87.67
2022-10-22T07:54:06.946Z,87.65
2022-10-22T07:55:06.895Z,87.63
2022-10-22T07:56:06.877Z,87.65
2022-10-22T07:57:06.869Z,87.69
2022-10-22T07:58:06.921Z,87.64
2022-10-22T07:59:06.892Z,87.66
2022-10-22T08:00:06.850Z,87.75
2022-10-22T08:01:06.866Z,87.73
2022-10-22T08:02:06.813Z,87.70
2022-10-22T08:03:06.813Z,87.78
2022-10-22T08:04:06.830Z,87.56
2022-10-22T08:05:06.792Z,87.64
2022-10-22T08:06:06.773Z,87.65
2022-10-22T08:07:06.800Z,87.61
2022-10-22T08:08:06.755Z,87.65
2022-10-22T08:09:06.776Z,87.64
2022-10-22T08:10:06.826Z,87.82
2022-10-22T08:11:06.726Z,87.93
2022-10-22T08:12:06.733Z,88.09
2022-10-22T08:13:06.817Z,88.05
2022-10-22T08:14:06.722Z,88.10
2022-10-22T08:15:06.686Z,88.04
2022-10-22T08:16:06.688Z,88.16
2022-10-22T08:17:06.706Z,88.13
2022-10-22T08:18:06.668Z,88.17
2022-10-22T08:19:06.635Z,88.14
2022-10-22T08:20:06.635Z,88.34
2022-10-22T08:21:06.624Z,88.59
2022-10-22T08:22:06.678Z,88.64
2022-10-22T08:23:06.654Z,88.57
2022-10-22T08:25:06.574Z,88.04
2022-10-22T08:26:06.568Z,88.04
2022-10-22T08:27:06.565Z,87.92
2022-10-22T08:28:06.593Z,87.82
2022-10-22T08:29:06.547Z,87.73
2022-10-22T08:30:06.544Z,87.81
2022-10-22T08:31:06.568Z,87.31
2022-10-22T08:32:06.510Z,87.41
2022-10-22T08:33:06.499Z,87.21
2022-10-22T08:34:06.503Z,87.21
2022-10-22T08:35:06.527Z,87.34
2022-10-22T08:36:06.466Z,87.32
2022-10-22T08:37:06.451Z,87.67
2022-10-22T08:38:06.467Z,87.69
2022-10-22T08:39:06.458Z,87.58
2022-10-22T08:40:06.428Z,87.58
2022-10-22T08:41:06.468Z,87.46
2022-10-22T08:42:06.406Z,87.45
2022-10-22T08:43:06.415Z,87.58
2022-10-22T08:44:06.442Z,87.29
2022-10-22T08:45:06.381Z,86.98
2022-10-22T08:46:06.403Z,87.05
2022-10-22T08:47:06.407Z,87.01
2022-10-22T08:48:06.366Z,86.94
2022-10-22T08:49:06.406Z,86.74
2022-10-22T08:50:06.384Z,86.66
2022-10-22T08:51:06.403Z,86.27
2022-10-22T08:52:06.349Z,85.98
2022-10-22T08:53:06.293Z,86.15
2022-10-22T08:54:06.281Z,86.18
2022-10-22T08:55:06.270Z,85.64
2022-10-22T08:56:06.266Z,85.24
2022-10-22T08:57:06.303Z,85.75
2022-10-22T08:58:06.247Z,85.76
2022-10-22T08:59:06.284Z,85.64
2022-10-22T09:00:06.232Z,85.65
2022-10-22T09:01:06.202Z,85.41
2022-10-22T09:02:06.252Z,85.60
2022-10-22T09:03:06.191Z,85.34
2022-10-22T09:04:06.223Z,84.97
2022-10-22T09:05:10.138Z,84.61
2022-10-22T09:06:06.219Z,84.89
2022-10-22T09:07:06.145Z,84.59
2022-10-22T09:08:06.149Z,84.87
2022-10-22T09:09:06.225Z,85.07
2022-10-22T09:10:06.117Z,85.18
2022-10-22T09:11:06.116Z,85.47
2022-10-22T09:12:06.102Z,85.05
2022-10-22T09:13:06.164Z,85.27
2022-10-22T09:14:06.250Z,85.02
2022-10-22T09:15:06.076Z,84.93
2022-10-22T09:16:06.055Z,84.30
2022-10-22T09:17:06.049Z,84.44
2022-10-22T09:18:06.041Z,84.44
2022-10-22T09:19:06.018Z,83.81
2022-10-22T09:20:06.081Z,83.88
2022-10-22T09:21:06.006Z,83.45
2022-10-22T09:22:05.992Z,83.59
2022-10-22T09:23:05.985Z,83.58
2022-10-22T09:24:06.014Z,83.18
2022-10-22T09:25:05.958Z,82.76
2022-10-22T09:26:05.959Z,82.86
2022-10-22T09:27:05.980Z,83.29
2022-10-22T09:28:05.975Z,83.13
2022-10-22T09:29:05.978Z,82.90
2022-10-22T09:30:05.971Z,82.59
2022-10-22T09:31:05.910Z,82.48
2022-10-22T09:32:05.890Z,81.00
2022-10-22T09:33:05.897Z,81.60
2022-10-22T09:34:05.881Z,81.61
2022-10-22T09:35:05.875Z,81.46
2022-10-22T09:36:05.962Z,81.38
2022-10-22T09:37:05.843Z,80.16
2022-10-22T09:38:05.824Z,80.10
2022-10-22T09:39:05.907Z,80.31
2022-10-22T09:40:05.847Z,80.28
2022-10-22T09:41:05.862Z,80.70
2022-10-22T09:42:05.815Z,80.64
2022-10-22T09:43:05.878Z,80.67
2022-10-22T09:44:05.788Z,80.27
2022-10-22T09:45:05.823Z,79.48
2022-10-22T09:46:05.783Z,79.13
2022-10-22T09:47:05.792Z,80.47
2022-10-22T09:48:05.753Z,80.06
2022-10-22T09:49:05.778Z,80.08
2022-10-22T09:50:05.734Z,80.41
2022-10-22T09:51:05.725Z,80.98
2022-10-22T09:52:05.722Z,80.99
2022-10-22T09:53:05.698Z,81.19
2022-10-22T09:54:05.658Z,81.49
2022-10-22T09:55:05.741Z,80.60
2022-10-22T09:56:05.664Z,79.84
2022-10-22T09:57:05.660Z,80.25
2022-10-22T09:58:05.636Z,79.26
2022-10-22T09:59:05.677Z,79.32
2022-10-22T10:00:05.720Z,79.74
2022-10-22T10:01:05.657Z,79.45
2022-10-22T10:02:13.851Z,79.39
2022-10-22T10:03:05.654Z,80.01
2022-10-22T10:04:09.442Z,80.34
2022-10-22T10:05:05.815Z,80.48
2022-10-22T10:06:06.188Z,80.89
2022-10-22T10:07:05.627Z,81.18
2022-10-22T10:08:05.551Z,80.77
2022-10-22T10:09:05.692Z,79.90
2022-10-22T10:10:05.542Z,79.73
2022-10-22T10:11:05.572Z,79.91
2022-10-22T10:12:05.492Z,79.61
2022-10-22T10:13:05.673Z,79.28
2022-10-22T10:14:05.472Z,79.21
2022-10-22T10:15:05.472Z,80.11
2022-10-22T10:16:05.452Z,80.39
2022-10-22T10:17:05.451Z,79.96
2022-10-22T10:18:05.467Z,79.96
2022-10-22T10:19:05.424Z,79.57
2022-10-22T10:20:05.404Z,78.89
2022-10-22T10:21:05.446Z,78.03
2022-10-22T10:22:05.431Z,77.11
2022-10-22T10:23:05.377Z,76.57
2022-10-22T10:24:05.349Z,76.59
2022-10-22T10:25:05.357Z,76.77
2022-10-22T10:26:05.340Z,77.16
2022-10-22T10:27:05.388Z,76.96
2022-10-22T10:28:05.319Z,75.85
2022-10-22T10:29:05.317Z,74.89
2022-10-22T10:30:05.349Z,75.64
2022-10-22T10:31:05.278Z,75.88
2022-10-22T10:32:05.283Z,75.51
2022-10-22T10:33:05.302Z,76.06
2022-10-22T10:34:05.249Z,76.44
2022-10-22T10:35:05.312Z,76.31
2022-10-22T10:36:05.234Z,76.23
2022-10-22T10:37:05.225Z,76.80
2022-10-22T10:38:05.212Z,77.01
2022-10-22T10:39:05.247Z,76.72
2022-10-22T10:40:05.308Z,77.08
2022-10-22T10:41:05.240Z,77.43
2022-10-22T10:42:05.240Z,77.32
2022-10-22T10:43:05.174Z,77.30
2022-10-22T10:44:05.165Z,78.13
2022-10-22T10:45:05.136Z,78.85
2022-10-22T10:46:05.223Z,78.24
2022-10-22T10:47:05.125Z,77.88
2022-10-22T10:48:05.137Z,78.22
2022-10-22T10:49:05.138Z,78.22
2022-10-22T10:50:05.171Z,77.98
2022-10-22T10:51:05.076Z,77.35
2022-10-22T10:52:05.072Z,76.55
2022-10-22T10:53:05.062Z,75.94
2022-10-22T10:54:05.060Z,75.96
2022-10-22T10:55:05.199Z,76.23
2022-10-22T10:56:05.039Z,76.74
2022-10-22T10:57:05.071Z,76.62
2022-10-22T10:58:05.117Z,75.86
2022-10-22T10:59:05.112Z,76.37
2022-10-22T11:00:04.985Z,75.21
2022-10-22T11:01:05.032Z,75.68
2022-10-22T11:02:05.056Z,75.75
2022-10-22T11:03:04.990Z,75.08
2022-10-22T11:04:04.958Z,74.87
2022-10-22T11:05:04.967Z,73.69
2022-10-22T11:06:04.926Z,72.79
2022-10-22T11:07:11.246Z,73.29
2022-10-22T11:08:04.973Z,73.03
2022-10-22T11:09:04.983Z,72.95
2022-10-22T11:10:04.891Z,72.71
2022-10-22T11:11:04.960Z,72.04
2022-10-22T11:12:04.869Z,71.09
2022-10-22T11:13:04.864Z,72.01
2022-10-22T11:14:04.848Z,72.57
2022-10-22T11:15:04.882Z,71.44
2022-10-22T11:16:04.831Z,70.49
2022-10-22T11:17:04.813Z,70.74
2022-10-22T11:18:04.817Z,70.79
2022-10-22T11:19:04.860Z,70.09
2022-10-22T11:20:04.836Z,70.56
2022-10-22T11:21:04.770Z,71.67
2022-10-22T11:22:04.778Z,71.87
2022-10-22T11:23:21.565Z,70.65
2022-10-22T11:24:04.744Z,70.07
2022-10-22T11:25:04.803Z,71.84
2022-10-22T11:26:04.726Z,70.74
2022-10-22T11:27:04.716Z,70.49
2022-10-22T11:28:10.379Z,69.85
2022-10-22T11:29:04.707Z,68.78
2022-10-22T11:30:04.693Z,68.70
2022-10-22T11:31:04.692Z,68.23
2022-10-22T11:32:04.666Z,68.17
2022-10-22T11:33:04.658Z,69.07
2022-10-22T11:34:15.559Z,68.90
2022-10-22T11:35:04.664Z,68.08
2022-10-22T11:36:04.641Z,67.61
2022-10-22T11:37:04.631Z,67.19
2022-10-22T11:38:04.604Z,67.99
2022-10-22T11:39:04.597Z,67.37
2022-10-22T11:40:04.605Z,67.66
2022-10-22T11:41:04.580Z,67.26
2022-10-22T11:42:04.593Z,67.58
2022-10-22T11:43:04.563Z,68.99
2022-10-22T11:44:04.544Z,69.75
2022-10-22T11:45:04.535Z,70.02
2022-10-22T11:46:04.529Z,71.70
2022-10-22T11:47:04.542Z,72.09
2022-10-22T11:48:04.497Z,73.45
2022-10-22T11:49:04.497Z,73.47
2022-10-22T11:50:04.508Z,73.13
2022-10-22T11:51:04.478Z,72.15
2022-10-22T11:52:05.147Z,70.21
2022-10-22T11:53:04.577Z,71.24
2022-10-22T11:54:04.473Z,71.64
2022-10-22T11:55:04.441Z,70.80
2022-10-22T11:56:04.444Z,71.19
2022-10-22T11:57:04.423Z,70.69
2022-10-22T11:58:04.417Z,70.53
2022-10-22T11:59:04.412Z,70.97
2022-10-22T12:00:04.378Z,70.32
2022-10-22T12:01:04.368Z,70.61
2022-10-22T12:02:04.368Z,70.04
2022-10-22T12:03:04.374Z,70.47
2022-10-22T12:04:04.396Z,69.37
2022-10-22T12:05:04.336Z,68.75
2022-10-22T12:06:04.316Z,67.54
2022-10-22T12:07:04.311Z,66.95
2022-10-22T12:08:04.544Z,66.67
2022-10-22T12:09:04.391Z,66.83
2022-10-22T12:10:04.281Z,66.69
2022-10-22T12:11:04.287Z,66.47
2022-10-22T12:12:04.482Z,67.95
2022-10-22T12:13:04.251Z,67.77
2022-10-22T12:14:04.283Z,66.48
2022-10-22T12:15:04.230Z,67.19
2022-10-22T12:16:04.228Z,66.82
2022-10-22T12:17:04.217Z,67.42
2022-10-22T12:18:04.422Z,67.50
2022-10-22T12:19:04.279Z,68.08
2022-10-22T12:20:04.183Z,68.07
2022-10-22T12:21:04.200Z,68.26
2022-10-22T12:22:04.167Z,66.83
2022-10-22T12:23:04.164Z,66.00
2022-10-22T12:24:04.133Z,66.15
2022-10-22T12:25:04.182Z,66.26
2022-10-22T12:26:04.126Z,64.41
2022-10-22T12:27:04.160Z,65.06
2022-10-22T12:28:04.140Z,65.43
2022-10-22T12:29:04.092Z,65.77
2022-10-22T12:30:04.084Z,64.96
2022-10-22T12:31:04.071Z,64.32
2022-10-22T12:32:04.076Z,65.01
2022-10-22T12:33:04.102Z,64.12
2022-10-22T12:34:04.043Z,64.20
2022-10-22T12:35:04.041Z,64.33
2022-10-22T12:36:04.031Z,63.81
2022-10-22T12:37:04.012Z,63.89
2022-10-22T12:38:04.030Z,63.77
2022-10-22T12:39:04.333Z,64.87
2022-10-22T12:40:03.979Z,63.93
2022-10-22T12:41:03.970Z,64.61
2022-10-22T12:42:03.955Z,65.11
2022-10-22T12:43:03.989Z,64.86
2022-10-22T12:44:03.988Z,66.16
2022-10-22T12:45:03.962Z,65.83
2022-10-22T12:46:03.924Z,66.07
2022-10-22T12:47:03.930Z,65.02
2022-10-22T12:48:03.918Z,65.24
2022-10-22T12:49:03.946Z,64.96
2022-10-22T12:50:03.878Z,65.34
2022-10-22T12:51:03.871Z,66.44
2022-10-22T12:52:03.858Z,65.82
2022-10-22T12:53:03.901Z,65.78
2022-10-22T12:54:03.835Z,66.55